Terminal Aerodrome Forecast
Issued by NWS

Home | Current Version | Previous Version | Graphics & Text | Print | Product List | Glossary On
Versions: 1 2 3 4 5 6 7 8 9 10 11 12 13 14 15 16 17 18 19 20 21 22 23 24
000
FTUS41 KCLE 220550
TAFFDY
TAF
KFDY 220550Z 2206/2306 06009KT P6SM -SNRA OVC060
     FM220800 05010KT 6SM -SNRA OVC035
     FM221200 05012KT 3SM -SNPL OVC015
     FM221300 05012KT P6SM VCSH OVC015
     FM221500 05012KT P6SM OVC007
     FM230500 07007KT P6SM OVC007=

USA.gov is the U.S. government's official web portal to all federal, state and local government web resources and services.